Time;durP1;ratioP1;P1;durP2;ratioP2;P2;SDS_P1;SDS_P2;PMS_P1;PMS_P2;Temp;Humidity;BMP_temperature;BMP_pressure;BME280_temperature;BME280_humidity;BME280_pressure;Samples;Min_cycle;Max_cycle;Signal;HPM_P1;HPM_P2
2023/10/16 00:01:57;;;;;;;1.50;0.30;;;;;;;8.64;100.00;99623.71;104742;1256;60556;-49
2023/10/16 00:04:25;;;;;;;1.20;0.30;;;;;;;8.64;100.00;99623.16;104716;1258;73898;-49
2023/10/16 00:06:53;;;;;;;0.20;0.20;;;;;;;8.64;100.00;99622.98;108705;1257;68763;-49
2023/10/16 00:09:24;;;;;;;0.80;0.30;;;;;;;8.65;100.00;99622.06;107143;1258;72737;-49
2023/10/16 00:11:51;;;;;;;2.30;0.30;;;;;;;8.65;100.00;99623.11;104748;1254;60665;-48
2023/10/16 00:14:26;;;;;;;0.30;0.20;;;;;;;8.66;100.00;99622.91;104654;1257;61601;-48
2023/10/16 00:16:54;;;;;;;0.60;0.30;;;;;;;8.67;100.00;99624.12;105429;1257;73864;-48
2023/10/16 00:19:24;;;;;;;1.20;0.30;;;;;;;8.66;100.00;99623.27;104722;1256;66511;-49
2023/10/16 00:21:52;;;;;;;0.30;0.30;;;;;;;8.64;100.00;99621.02;104745;1260;71409;-49
2023/10/16 00:24:19;;;;;;;0.90;0.30;;;;;;;8.61;100.00;99621.84;104704;1257;60488;-48
2023/10/16 00:26:50;;;;;;;0.60;0.20;;;;;;;8.56;100.00;99621.38;104748;1258;60565;-48
2023/10/16 00:29:24;;;;;;;0.70;0.30;;;;;;;8.50;100.00;99621.98;104878;1257;74307;-49
2023/10/16 00:31:52;;;;;;;;;;;;;;;8.41;100.00;99620.05;107663;1256;67858;-48
2023/10/16 00:34:20;;;;;;;0.70;0.20;;;;;;;8.32;100.00;99620.73;104719;1260;72765;-48
2023/10/16 00:36:54;;;;;;;0.90;0.30;;;;;;;8.21;100.00;99617.40;105832;1257;62277;-50
2023/10/16 00:39:25;;;;;;;0.60;0.20;;;;;;;8.11;100.00;99614.45;104779;1256;60571;-47
2023/10/16 00:41:53;;;;;;;0.80;0.30;;;;;;;8.03;100.00;99615.66;106468;1260;73763;-49
2023/10/16 00:44:22;;;;;;;0.40;0.20;;;;;;;7.97;100.00;99610.91;104720;1257;67733;-49
2023/10/16 00:46:50;;;;;;;0.40;0.10;;;;;;;7.91;100.00;99601.85;106851;1257;71498;-46
2023/10/16 00:49:18;;;;;;;0.50;0.20;;;;;;;7.87;100.00;99600.91;104631;1260;60446;-50
2023/10/16 00:51:47;;;;;;;0.30;0.10;;;;;;;7.85;100.00;99600.45;107592;1259;58892;-50
2023/10/16 00:54:19;;;;;;;0.70;0.20;;;;;;;7.84;100.00;99600.50;105261;1259;73789;-48
2023/10/16 00:56:51;;;;;;;0.80;0.20;;;;;;;7.84;100.00;99598.55;104841;1257;68068;-49
2023/10/16 00:59:18;;;;;;;0.50;0.20;;;;;;;7.84;100.00;99602.48;104679;1257;70760;-50
2023/10/16 01:01:46;;;;;;;0.50;0.20;;;;;;;7.85;100.00;99602.98;104736;1257;61927;-49
2023/10/16 01:04:15;;;;;;;0.40;0.10;;;;;;;7.86;100.00;99601.49;104974;1256;60540;-48
2023/10/16 01:06:44;;;;;;;0.40;0.10;;;;;;;7.86;100.00;99599.38;108636;1256;73894;-50
2023/10/16 01:09:24;;;;;;;1.80;0.20;;;;;;;7.84;100.00;99598.02;105137;1258;66612;-48
2023/10/16 01:11:54;;;;;;;0.20;0.10;;;;;;;7.81;100.00;99598.52;104740;1257;71481;-48
2023/10/16 01:14:22;;;;;;;0.40;0.20;;;;;;;7.77;100.00;99592.04;104640;1261;60688;-50
2023/10/16 01:16:50;;;;;;;0.80;0.20;;;;;;;7.74;100.00;99592.69;107460;1257;60572;-50
2023/10/16 01:19:21;;;;;;;0.60;0.20;;;;;;;7.73;100.00;99585.43;104779;1256;73893;-49
2023/10/16 01:21:49;;;;;;;0.70;0.20;;;;;;;7.71;100.00;99588.71;104722;1256;66701;-48
2023/10/16 01:24:19;;;;;;;1.40;0.20;;;;;;;7.70;100.00;99590.02;105886;1257;72457;-50
2023/10/16 01:26:50;;;;;;;1.00;0.30;;;;;;;7.68;100.00;99586.52;105449;1256;60451;-49
2023/10/16 01:29:20;;;;;;;2.00;0.20;;;;;;;7.67;100.00;99589.58;104893;1258;60903;-49
2023/10/16 01:31:52;;;;;;;0.80;0.20;;;;;;;7.67;100.00;99584.41;105184;1256;73854;-48
2023/10/16 01:34:22;;;;;;;0.30;0.10;;;;;;;7.67;100.00;99583.34;105642;1260;67684;-49
2023/10/16 01:36:51;;;;;;;1.00;0.20;;;;;;;7.67;100.00;99586.70;105740;1263;72768;-48
2023/10/16 01:42:11;;;;;;;1.10;0.20;;;;;;;7.69;100.00;99583.98;108519;1257;59764;-51
2023/10/16 01:44:39;;;;;;;0.40;0.10;;;;;;;7.67;100.00;99578.30;107417;1259;73896;-52
2023/10/16 01:47:13;;;;;;;0.70;0.20;;;;;;;7.68;100.00;99586.31;107651;1257;66934;-52
2023/10/16 01:49:41;;;;;;;;;;;;;;;7.69;100.00;99588.61;105473;1257;72709;-51
2023/10/16 01:52:12;;;;;;;1.00;0.20;;;;;;;7.70;100.00;99588.39;105202;1260;60490;-51
2023/10/16 01:54:40;;;;;;;0.30;0.20;;;;;;;7.70;100.00;99584.63;108772;1257;59949;-52
2023/10/16 01:57:12;;;;;;;0.30;0.20;;;;;;;7.69;100.00;99577.20;108746;1256;74794;-52
2023/10/16 01:59:41;;;;;;;0.50;0.20;;;;;;;7.65;100.00;99567.14;108761;1256;68578;-52
2023/10/16 02:02:09;;;;;;;1.00;0.30;;;;;;;7.62;100.00;99558.70;107108;1256;72693;-52
2023/10/16 02:04:38;;;;;;;0.50;0.20;;;;;;;7.63;100.00;99550.47;105164;1260;60571;-52
2023/10/16 02:07:11;;;;;;;2.00;0.20;;;;;;;7.65;100.00;99544.30;108826;1257;58866;-52
2023/10/16 02:09:40;;;;;;;0.80;0.80;;;;;;;7.70;100.00;99549.46;108810;1254;73469;-52
2023/10/16 02:12:14;;;;;;;0.20;0.10;;;;;;;7.73;100.00;99539.70;108756;1256;67405;-52
2023/10/16 02:14:44;;;;;;;0.80;0.20;;;;;;;7.76;100.00;99540.80;108742;1254;73109;-52
2023/10/16 02:17:23;;;;;;;0.60;0.20;;;;;;;7.80;100.00;99539.77;108810;1257;60466;-51
2023/10/16 02:19:51;;;;;;;4.40;0.30;;;;;;;7.83;100.00;99540.19;108867;1256;60168;-52
2023/10/16 02:22:22;;;;;;;0.50;0.20;;;;;;;7.85;100.00;99545.80;108771;1256;73188;-52
2023/10/16 02:24:50;;;;;;;0.60;0.20;;;;;;;7.86;100.00;99541.46;108757;1256;66985;-51
2023/10/16 02:27:21;;;;;;;0.50;0.30;;;;;;;7.86;100.00;99543.44;108847;1256;72725;-52
2023/10/16 02:29:54;;;;;;;1.40;0.20;;;;;;;7.85;100.00;99541.69;108837;1255;60511;-51
2023/10/16 02:32:24;;;;;;;0.40;0.20;;;;;;;7.85;100.00;99536.67;108791;1256;58848;-51
2023/10/16 02:34:52;;;;;;;0.30;0.20;;;;;;;7.86;100.00;99539.85;108778;1256;72652;-53
2023/10/16 02:37:20;;;;;;;0.60;0.10;;;;;;;7.87;100.00;99540.73;108783;1256;67085;-52
2023/10/16 02:39:53;;;;;;;0.40;0.20;;;;;;;7.85;100.00;99547.05;108806;1256;71383;-52
2023/10/16 02:42:25;;;;;;;0.30;0.20;;;;;;;7.84;100.00;99546.73;108717;1260;62428;-52
2023/10/16 02:44:54;;;;;;;1.20;0.30;;;;;;;7.84;100.00;99548.86;108841;1256;59508;-53
2023/10/16 02:47:27;;;;;;;1.10;0.20;;;;;;;7.84;100.00;99547.63;108772;1256;73864;-52
2023/10/16 02:49:56;;;;;;;0.90;0.30;;;;;;;7.83;100.00;99545.52;108763;1257;65764;-52
2023/10/16 02:52:25;;;;;;;0.70;0.20;;;;;;;7.83;100.00;99542.83;108937;1254;73212;-52
2023/10/16 02:54:56;;;;;;;1.20;0.20;;;;;;;7.85;100.00;99547.23;108772;1256;60393;-52
2023/10/16 02:57:27;;;;;;;0.70;0.20;;;;;;;7.88;100.00;99543.20;108948;1256;60074;-52
2023/10/16 02:59:54;;;;;;;1.90;0.20;;;;;;;7.89;100.00;99535.45;108710;1256;73898;-52
2023/10/16 03:02:23;;;;;;;0.50;0.20;;;;;;;7.91;100.00;99535.38;108925;1256;67549;-52
2023/10/16 03:05:02;;;;;;;0.50;0.20;;;;;;;7.94;100.00;99535.80;105486;1258;74487;-52
2023/10/16 03:07:29;;;;;;;0.60;0.20;;;;;;;7.98;100.00;99537.95;105196;1257;62245;-52
2023/10/16 03:09:57;;;;;;;0.50;0.30;;;;;;;8.03;100.00;99532.95;105198;1261;60597;-51
2023/10/16 03:12:24;;;;;;;1.30;0.70;;;;;;;8.07;100.00;99533.67;105213;1258;73541;-52
2023/10/16 03:14:58;;;;;;;0.70;0.30;;;;;;;8.08;100.00;99535.55;106061;1260;65717;-50
2023/10/16 03:19:59;;;;;;;0.90;0.30;;;;;;;8.05;100.00;99537.69;105371;1257;60551;-49
2023/10/16 03:22:26;;;;;;;0.50;0.30;;;;;;;8.02;100.00;99538.84;106395;1256;60515;-51
2023/10/16 03:24:55;;;;;;;0.20;0.20;;;;;;;8.00;100.00;99543.05;105087;1254;74003;-52
2023/10/16 03:27:29;;;;;;;1.10;0.60;;;;;;;7.95;100.00;99542.52;105354;1260;66635;-51
2023/10/16 03:29:57;;;;;;;0.30;0.10;;;;;;;7.90;100.00;99542.56;108793;1256;71492;-52
2023/10/16 03:32:28;;;;;;;0.80;0.20;;;;;;;7.89;100.00;99545.84;105806;1257;61065;-51
2023/10/16 03:35:05;;;;;;;0.70;0.30;;;;;;;7.89;100.00;99549.41;105106;1261;60350;-51
2023/10/16 03:37:35;;;;;;;0.50;0.30;;;;;;;7.89;100.00;99548.48;105143;1257;71684;-51
2023/10/16 03:40:07;;;;;;;0.50;0.20;;;;;;;7.90;100.00;99544.70;108684;1256;67306;-52
2023/10/16 03:42:35;;;;;;;0.30;0.20;;;;;;;7.90;100.00;99548.29;108822;1256;72458;-52
2023/10/16 03:45:03;;;;;;;0.50;0.30;;;;;;;7.91;100.00;99549.15;105740;1260;60626;-52
2023/10/16 03:47:32;;;;;;;3.00;0.20;;;;;;;7.93;100.00;99547.45;104794;1260;60489;-51
2023/10/16 03:50:01;;;;;;;0.40;0.30;;;;;;;7.95;100.00;99541.63;104777;1260;72616;-52
2023/10/16 03:52:28;;;;;;;0.40;0.20;;;;;;;7.98;100.00;99538.11;104673;1256;66751;-51
2023/10/16 03:54:55;;;;;;;0.40;0.20;;;;;;;8.01;100.00;99527.11;104883;1256;73270;-51
2023/10/16 03:57:23;;;;;;;0.70;0.30;;;;;;;8.03;100.00;99532.39;104939;1257;60934;-50
2023/10/16 03:59:51;;;;;;;1.20;0.20;;;;;;;8.03;100.00;99527.38;105100;1258;61291;-51
2023/10/16 04:02:23;;;;;;;1.20;0.30;;;;;;;8.03;100.00;99529.17;105187;1256;72640;-50
2023/10/16 04:04:54;;;;;;;0.60;0.20;;;;;;;8.02;100.00;99525.11;105471;1257;66083;-52
2023/10/16 04:07:22;;;;;;;0.60;0.20;;;;;;;8.01;100.00;99521.02;105183;1259;71515;-52
2023/10/16 04:09:50;;;;;;;0.70;0.20;;;;;;;7.99;100.00;99519.13;105255;1262;60450;-52
2023/10/16 04:12:20;;;;;;;0.60;0.30;;;;;;;7.98;100.00;99522.05;104807;1256;60511;-51
2023/10/16 04:14:55;;;;;;;0.30;0.20;;;;;;;7.96;100.00;99517.48;108653;1256;72664;-52
2023/10/16 04:17:32;;;;;;;0.50;0.20;;;;;;;7.92;100.00;99517.44;108663;1260;66806;-52
2023/10/16 04:20:30;;;;;;;0.20;0.20;;;;;;;7.89;100.00;99522.23;107107;1257;72746;-52
2023/10/16 04:22:57;;;;;;;0.80;0.20;;;;;;;7.87;100.00;99527.17;104626;1259;61896;-51
2023/10/16 04:25:33;;;;;;;0.20;0.10;;;;;;;7.83;100.00;99528.04;105680;1261;61002;-52
2023/10/16 04:28:18;;;;;;;1.90;0.30;;;;;;;7.82;100.00;99530.06;104802;1257;73792;-51
2023/10/16 04:30:52;;;;;;;0.30;0.20;;;;;;;7.82;100.00;99532.91;106999;1257;64732;-53
2023/10/16 04:33:48;;;;;;;0.70;0.20;;;;;;;7.83;100.00;99533.91;104924;1260;71483;-50
2023/10/16 04:42:49;;;;;;;0.30;0.20;;;;;;;7.87;100.00;99540.01;105791;1258;72657;-51
2023/10/16 04:44:49;;;;;;;0.30;0.20;;;;;;;7.87;100.00;99534.84;105303;1256;69809;-51
2023/10/16 04:47:17;;;;;;;0.50;0.20;;;;;;;7.88;100.00;99535.34;104783;1255;70877;-50
2023/10/16 04:49:59;;;;;;;2.80;0.20;;;;;;;7.88;100.00;99527.29;104980;1259;60559;-51
2023/10/16 04:53:06;;;;;;;1.00;0.90;;;;;;;7.89;100.00;99519.58;105199;1256;59241;-51
2023/10/16 04:56:15;;;;;;;0.80;0.30;;;;;;;7.92;100.00;99525.33;105269;1257;72667;-51
2023/10/16 06:16:17;;;;;;;2.90;0.60;;;;;;;7.56;100.00;99581.06;104471;1264;154588;-51
2023/10/16 06:18:45;;;;;;;1.20;0.50;;;;;;;7.50;100.00;99580.04;105134;1264;62103;-50
2023/10/16 06:21:16;;;;;;;1.50;0.60;;;;;;;7.47;100.00;99578.59;104396;1269;59343;-53
2023/10/16 06:23:49;;;;;;;2.60;0.50;;;;;;;7.43;100.00;99579.78;104582;1264;72193;-52
2023/10/16 06:26:18;;;;;;;3.50;0.70;;;;;;;7.44;100.00;99576.55;104621;1264;67107;-51
2023/10/16 06:28:52;;;;;;;2.80;0.60;;;;;;;7.44;100.00;99575.48;104309;1266;73159;-51
2023/10/16 06:31:22;;;;;;;1.80;0.70;;;;;;;7.43;100.00;99576.94;107702;1257;64008;-51
2023/10/16 06:33:55;;;;;;;2.60;0.60;;;;;;;7.45;100.00;99579.19;105439;1257;59522;-52
2023/10/16 06:36:24;;;;;;;2.20;0.70;;;;;;;7.46;100.00;99583.42;104988;1258;71901;-52
2023/10/16 06:38:52;;;;;;;4.00;0.70;;;;;;;7.48;100.00;99591.74;105186;1260;67088;-53
2023/10/16 06:41:22;;;;;;;2.90;0.80;;;;;;;7.51;100.00;99598.94;105383;1263;72693;-52
2023/10/16 06:43:50;;;;;;;1.90;0.60;;;;;;;7.53;100.00;99602.78;105037;1258;61757;-53
2023/10/16 06:46:24;;;;;;;1.80;0.50;;;;;;;7.55;100.00;99601.84;105188;1257;59648;-53
2023/10/16 06:48:52;;;;;;;2.00;0.60;;;;;;;7.53;100.00;99594.39;105056;1258;73067;-52
2023/10/16 06:51:26;;;;;;;2.10;0.60;;;;;;;7.54;100.00;99596.34;104975;1257;65778;-52
2023/10/16 06:53:56;;;;;;;1.30;0.50;;;;;;;7.56;100.00;99595.38;105700;1257;72689;-51
2023/10/16 06:56:34;;;;;;;2.80;0.50;;;;;;;7.56;100.00;99595.17;105505;1257;60507;-52
2023/10/16 06:59:02;;;;;;;1.10;0.40;;;;;;;7.55;100.00;99592.92;104508;1260;59644;-52
2023/10/16 07:01:30;;;;;;;2.90;0.50;;;;;;;7.53;100.00;99588.67;104446;1262;71026;-54
2023/10/16 07:03:57;;;;;;;9.30;0.70;;;;;;;7.56;100.00;99592.33;104753;1262;65636;-51
2023/10/16 07:06:32;;;;;;;3.30;0.60;;;;;;;7.59;100.00;99589.52;104350;1259;71444;-51
2023/10/16 07:09:06;;;;;;;2.80;0.50;;;;;;;7.62;100.00;99592.13;104396;1257;61892;-52
2023/10/16 07:11:33;;;;;;;3.00;0.60;;;;;;;7.63;100.00;99590.29;104377;1262;59632;-51
2023/10/16 07:14:01;;;;;;;2.80;0.60;;;;;;;7.65;100.00;99584.30;104375;1258;73218;-50
2023/10/16 07:16:28;;;;;;;2.30;0.50;;;;;;;7.67;100.00;99582.23;104484;1262;65517;-51
2023/10/16 07:18:57;;;;;;;2.40;0.60;;;;;;;7.71;100.00;99582.46;105047;1263;71479;-51
2023/10/16 07:21:25;;;;;;;2.80;0.50;;;;;;;7.72;100.00;99590.83;104378;1260;60626;-52
2023/10/16 07:23:55;;;;;;;1.60;0.50;;;;;;;7.74;100.00;99590.58;104349;1259;60045;-51
2023/10/16 07:26:26;;;;;;;1.90;0.80;;;;;;;7.76;100.00;99586.17;104639;1257;75306;-50
2023/10/16 07:28:53;;;;;;;3.20;0.60;;;;;;;7.80;100.00;99594.27;104286;1257;67088;-51
2023/10/16 07:31:22;;;;;;;2.00;0.50;;;;;;;7.84;100.00;99596.20;104401;1263;71252;-51
2023/10/16 07:33:59;;;;;;;3.70;0.60;;;;;;;7.90;100.00;99595.47;104498;1257;61494;-51
2023/10/16 07:36:27;;;;;;;3.70;0.70;;;;;;;7.95;100.00;99602.77;104355;1262;59512;-51
2023/10/16 07:38:54;;;;;;;4.20;0.80;;;;;;;7.98;100.00;99603.02;104603;1262;73496;-51
2023/10/16 07:41:23;;;;;;;4.10;0.80;;;;;;;8.02;100.00;99601.58;104470;1257;65853;-52
2023/10/16 07:43:57;;;;;;;6.60;0.60;;;;;;;8.06;100.00;99599.65;105695;1260;72711;-51
2023/10/16 07:46:31;;;;;;;5.70;0.70;;;;;;;8.12;100.00;99602.06;106944;1257;61141;-51
2023/10/16 07:49:03;;;;;;;4.30;0.60;;;;;;;8.17;100.00;99607.56;108016;1260;59750;-50
2023/10/16 07:51:30;;;;;;;2.90;0.70;;;;;;;8.21;100.00;99604.92;105094;1263;73070;-51
2023/10/16 07:54:00;;;;;;;3.10;0.50;;;;;;;8.23;100.00;99602.67;105349;1258;66970;-51
2023/10/16 07:56:32;;;;;;;1.70;0.60;;;;;;;8.27;100.00;99602.86;105497;1260;71476;-51
2023/10/16 07:59:06;;;;;;;2.10;0.60;;;;;;;8.30;100.00;99600.23;104741;1263;60499;-51
2023/10/16 08:01:36;;;;;;;1.70;0.60;;;;;;;8.29;100.00;99597.61;105453;1263;59644;-50
2023/10/16 08:09:49;;;;;;;2.80;0.70;;;;;;;8.33;100.00;99606.58;105534;1263;71573;-52
2023/10/16 08:12:19;;;;;;;2.60;1.00;;;;;;;8.37;100.00;99601.61;105856;1258;60395;-51
2023/10/16 08:14:47;;;;;;;2.60;0.70;;;;;;;8.39;100.00;99600.27;105470;1260;59635;-49
2023/10/16 08:17:17;;;;;;;5.20;0.70;;;;;;;8.40;100.00;99604.35;105223;1258;73657;-52
2023/10/16 08:19:46;;;;;;;3.00;0.80;;;;;;;8.42;100.00;99601.08;108648;1257;67026;-53
2023/10/16 08:22:13;;;;;;;2.00;0.60;;;;;;;8.42;100.00;99599.59;108768;1257;72795;-52
2023/10/16 08:24:57;;;;;;;3.20;0.60;;;;;;;8.42;100.00;99598.54;108722;1257;58842;-52
2023/10/16 08:30:32;;;;;;;1.60;0.80;;;;;;;8.41;100.00;99600.91;108640;1262;71833;-51
2023/10/16 08:33:07;;;;;;;2.50;0.80;;;;;;;8.44;100.00;99599.88;108741;1257;66968;-53
2023/10/16 08:35:38;;;;;;;1.90;0.70;;;;;;;8.46;100.00;99596.05;108729;1257;75521;-53
2023/10/16 08:38:11;;;;;;;3.30;0.60;;;;;;;8.51;100.00;99599.06;108676;1257;60499;-52
2023/10/16 08:40:42;;;;;;;3.20;0.90;;;;;;;8.54;100.00;99594.98;108716;1257;60096;-53
2023/10/16 08:43:10;;;;;;;5.10;0.70;;;;;;;8.59;100.00;99599.60;108729;1256;73135;-52
2023/10/16 08:45:44;;;;;;;1.50;0.50;;;;;;;8.63;100.00;99601.91;108728;1257;67201;-52
2023/10/16 08:48:17;;;;;;;2.80;0.60;;;;;;;8.66;100.00;99600.89;108681;1256;72285;-53
2023/10/16 08:50:57;;;;;;;2.50;0.50;;;;;;;8.71;100.00;99597.80;108701;1256;59228;-52
2023/10/16 08:53:30;;;;;;;2.30;0.70;;;;;;;8.77;100.00;99594.52;108771;1258;58871;-53
2023/10/16 08:56:03;;;;;;;4.20;1.00;;;;;;;8.83;100.00;99589.24;108776;1257;74078;-53
2023/10/16 08:58:41;;;;;;;3.70;0.90;;;;;;;8.90;100.00;99593.25;108733;1257;64664;-54
2023/10/16 09:01:09;;;;;;;4.90;0.70;;;;;;;8.99;100.00;99587.65;108688;1257;72697;-52
2023/10/16 09:03:37;;;;;;;5.20;0.60;;;;;;;9.06;100.00;99577.83;108692;1257;60465;-52
2023/10/16 09:06:05;;;;;;;1.50;0.50;;;;;;;9.14;100.00;99582.86;108681;1257;60116;-53
2023/10/16 09:08:33;;;;;;;0.90;0.40;;;;;;;9.20;100.00;99577.74;108699;1257;73146;-54
2023/10/16 09:11:06;;;;;;;1.90;0.50;;;;;;;9.28;100.00;99577.21;105880;1260;65042;-52
2023/10/16 09:13:36;;;;;;;0.90;0.30;;;;;;;9.36;100.00;99575.91;107049;1262;72634;-52
2023/10/16 09:16:11;;;;;;;1.60;0.40;;;;;;;9.40;100.00;99569.63;107885;1258;59723;-52
2023/10/16 09:18:39;;;;;;;2.10;0.40;;;;;;;9.44;100.00;99571.63;108003;1257;59775;-52
2023/10/16 09:21:27;;;;;;;6.40;0.50;;;;;;;9.48;100.00;99572.51;104545;1258;72957;-52
2023/10/16 09:23:58;;;;;;;2.30;0.40;;;;;;;9.51;100.00;99578.29;105654;1257;66046;-51
2023/10/16 09:26:28;;;;;;;1.70;0.40;;;;;;;9.51;100.00;99578.27;108017;1258;71697;-52
2023/10/16 09:29:04;;;;;;;1.30;0.60;;;;;;;9.48;100.00;99576.97;105137;1260;62430;-51
2023/10/16 09:31:32;;;;;;;1.20;0.40;;;;;;;9.46;100.00;99574.01;105948;1263;60083;-53
2023/10/16 09:34:00;;;;;;;1.20;0.40;;;;;;;9.47;100.00;99577.55;105210;1263;71936;-51
2023/10/16 09:36:29;;;;;;;3.20;0.40;;;;;;;9.46;100.00;99577.07;105445;1263;66623;-52
2023/10/16 09:38:59;;;;;;;1.90;0.50;;;;;;;9.46;100.00;99580.98;106501;1261;71208;-52
2023/10/16 09:49:10;;;;;;;1.80;0.40;;;;;;;9.60;100.00;99584.48;105234;1257;66232;-52
2023/10/16 09:51:39;;;;;;;2.40;0.40;;;;;;;9.60;100.00;99581.77;105537;1260;71466;-52
2023/10/16 09:54:23;;;;;;;2.80;0.40;;;;;;;9.64;100.00;99584.46;107335;1262;59765;-51
2023/10/16 09:56:58;;;;;;;1.10;0.40;;;;;;;9.65;100.00;99583.17;105310;1257;59672;-51
2023/10/16 09:59:32;;;;;;;1.50;0.30;;;;;;;9.63;100.00;99585.74;105195;1262;70790;-51
2023/10/16 10:02:09;;;;;;;2.40;0.50;;;;;;;9.61;100.00;99582.26;105440;1260;67256;-50
2023/10/16 10:04:43;;;;;;;1.10;0.40;;;;;;;9.60;100.00;99580.37;104607;1263;71421;-52
2023/10/16 10:07:11;;;;;;;2.00;0.30;;;;;;;9.59;100.00;99580.77;104983;1263;59727;-51
2023/10/16 10:09:44;;;;;;;3.70;0.40;;;;;;;9.59;100.00;99587.05;105180;1257;60068;-51
2023/10/16 10:12:24;;;;;;;1.00;0.50;;;;;;;9.59;100.00;99582.73;105619;1260;72353;-50
2023/10/16 10:15:17;;;;;;;2.70;0.50;;;;;;;9.61;100.00;99587.32;105218;1257;65779;-50
2023/10/16 10:17:52;;;;;;;1.60;0.40;;;;;;;9.63;100.00;99593.48;105081;1263;72464;-50
2023/10/16 10:20:26;;;;;;;1.60;0.40;;;;;;;9.64;100.00;99587.70;105507;1260;60562;-51
2023/10/16 10:23:08;;;;;;;2.50;0.30;;;;;;;9.65;100.00;99588.70;106619;1257;60591;-51
2023/10/16 10:25:36;;;;;;;0.70;0.30;;;;;;;9.68;100.00;99588.23;108898;1254;72933;-52
2023/10/16 10:28:15;;;;;;;2.80;0.30;;;;;;;9.70;100.00;99586.67;106273;1257;66785;-50
2023/10/16 10:30:44;;;;;;;1.90;0.40;;;;;;;9.74;100.00;99592.23;106328;1259;71854;-51
2023/10/16 10:33:12;;;;;;;2.10;0.40;;;;;;;9.81;100.00;99592.79;106298;1255;59353;-52
2023/10/16 10:35:40;;;;;;;1.60;0.30;;;;;;;9.88;100.00;99589.73;105527;1255;60536;-51
2023/10/16 10:38:17;;;;;;;1.40;0.40;;;;;;;9.95;100.00;99584.40;106010;1258;72170;-51
2023/10/16 10:41:03;;;;;;;7.60;0.40;;;;;;;10.03;100.00;99578.64;105588;1259;65871;-51
2023/10/16 10:43:47;;;;;;;2.00;0.30;;;;;;;10.12;100.00;99582.84;104841;1254;73245;-52
2023/10/16 10:46:21;;;;;;;3.00;0.40;;;;;;;10.14;100.00;99588.67;104853;1254;60389;-51
2023/10/16 10:48:48;;;;;;;2.20;0.30;;;;;;;10.11;100.00;99589.91;106009;1253;60483;-51
2023/10/16 10:51:16;;;;;;;5.90;0.40;;;;;;;10.09;100.00;99593.25;105292;1254;72642;-51
2023/10/16 10:53:57;;;;;;;2.60;0.40;;;;;;;10.06;100.00;99601.60;105413;1257;64958;-52
2023/10/16 10:56:40;;;;;;;1.10;0.40;;;;;;;10.02;100.00;99598.80;105119;1254;72690;-51
2023/10/16 10:59:11;;;;;;;1.30;0.40;;;;;;;9.96;100.00;99602.48;104723;1260;60360;-51
2023/10/16 11:01:52;;;;;;;1.00;0.30;;;;;;;9.90;100.00;99607.77;107062;1259;60793;-53
2023/10/16 11:04:21;;;;;;;2.90;0.50;;;;;;;9.84;100.00;99604.47;106271;1259;73859;-51
2023/10/16 11:06:49;;;;;;;1.80;0.30;;;;;;;9.81;100.00;99604.42;105377;1254;67407;-52
2023/10/16 11:09:20;;;;;;;4.20;0.40;;;;;;;9.82;100.00;99605.84;106830;1260;71623;-51
2023/10/16 11:11:50;;;;;;;2.30;0.30;;;;;;;9.80;100.00;99606.80;109037;1254;58879;-52
2023/10/16 11:14:32;;;;;;;2.60;0.40;;;;;;;9.80;100.00;99604.48;105309;1257;60425;-51
2023/10/16 11:17:00;;;;;;;2.70;0.50;;;;;;;9.81;100.00;99606.95;105280;1259;74596;-51
2023/10/16 11:19:30;;;;;;;2.10;0.40;;;;;;;9.79;100.00;99605.58;105255;1262;67122;-49
2023/10/16 11:22:00;;;;;;;2.00;0.30;;;;;;;9.77;100.00;99605.02;109051;1254;72051;-52
2023/10/16 11:24:27;;;;;;;1.30;0.40;;;;;;;9.74;100.00;99602.64;109047;1254;58920;-53
2023/10/16 11:26:55;;;;;;;1.80;0.70;;;;;;;9.72;100.00;99609.54;109032;1254;60062;-52
2023/10/16 11:29:22;;;;;;;3.80;0.50;;;;;;;9.68;100.00;99609.00;109028;1254;73927;-51
2023/10/16 11:31:52;;;;;;;1.60;0.30;;;;;;;9.66;100.00;99607.69;108817;1254;70622;-53
2023/10/16 11:34:21;;;;;;;2.50;0.60;;;;;;;9.62;100.00;99618.03;109013;1254;73610;-52
2023/10/16 11:36:50;;;;;;;1.90;0.30;;;;;;;9.58;100.00;99620.05;108897;1254;60140;-51
2023/10/16 11:39:38;;;;;;;1.60;0.30;;;;;;;9.52;100.00;99622.29;108955;1254;59666;-53
2023/10/16 11:42:05;;;;;;;1.50;0.30;;;;;;;9.47;100.00;99622.31;109043;1254;73895;-52
2023/10/16 11:44:32;;;;;;;1.10;0.30;;;;;;;9.45;100.00;99622.41;108922;1259;70023;-53
2023/10/16 11:47:06;;;;;;;1.20;0.30;;;;;;;9.44;100.00;99629.67;108970;1254;73256;-52
2023/10/16 11:49:37;;;;;;;1.80;0.40;;;;;;;9.42;100.00;99636.35;108973;1258;60125;-53
2023/10/16 11:52:19;;;;;;;1.20;0.30;;;;;;;9.40;100.00;99645.23;108997;1257;59496;-52
2023/10/16 11:54:48;;;;;;;0.80;0.30;;;;;;;9.35;100.00;99645.81;109039;1253;73800;-52
2023/10/16 11:57:16;;;;;;;1.50;0.40;;;;;;;9.30;100.00;99645.67;109034;1254;67052;-52
2023/10/16 11:59:44;;;;;;;1.10;0.30;;;;;;;9.26;100.00;99646.41;109012;1254;72720;-51
2023/10/16 12:02:12;;;;;;;3.10;0.30;;;;;;;9.24;100.00;99643.83;108954;1254;60755;-51
2023/10/16 12:04:40;;;;;;;0.70;0.30;;;;;;;9.21;100.00;99648.80;109013;1254;60062;-52
2023/10/16 12:07:09;;;;;;;1.50;0.20;;;;;;;9.17;100.00;99653.08;108825;1254;73332;-51
2023/10/16 12:09:38;;;;;;;1.50;0.20;;;;;;;9.14;100.00;99654.48;109059;1254;68835;-51
2023/10/16 12:12:06;;;;;;;1.80;0.30;;;;;;;9.09;100.00;99656.13;109032;1257;72738;-52
2023/10/16 12:14:38;;;;;;;0.70;0.30;;;;;;;9.07;100.00;99656.03;109014;1254;60150;-52
2023/10/16 12:17:11;;;;;;;0.60;0.30;;;;;;;9.05;100.00;99652.54;108958;1257;59996;-52
2023/10/16 12:19:40;;;;;;;0.50;0.30;;;;;;;9.03;100.00;99660.45;107288;1257;73846;-51
2023/10/16 12:22:11;;;;;;;0.60;0.30;;;;;;;9.02;100.00;99661.04;106249;1259;65917;-51
2023/10/16 12:24:39;;;;;;;0.60;0.30;;;;;;;9.01;100.00;99662.89;105408;1259;72244;-49
2023/10/16 12:27:07;;;;;;;0.90;0.30;;;;;;;8.99;100.00;99660.48;109037;1259;59347;-51
2023/10/16 12:29:35;;;;;;;1.30;0.30;;;;;;;8.97;100.00;99658.96;106807;1258;59735;-51
2023/10/16 12:32:03;;;;;;;0.90;0.40;;;;;;;8.93;100.00;99658.05;105243;1264;74325;-50
2023/10/16 12:34:34;;;;;;;0.80;0.30;;;;;;;8.91;100.00;99664.79;106068;1259;67991;-51
2023/10/16 12:37:03;;;;;;;2.50;0.40;;;;;;;8.86;100.00;99666.61;105485;1258;72746;-51
2023/10/16 12:39:44;;;;;;;2.70;0.50;;;;;;;8.79;100.00;99674.94;105395;1260;60562;-50
2023/10/16 12:42:13;;;;;;;2.70;0.30;;;;;;;8.73;100.00;99674.33;105408;1255;60539;-50
2023/10/16 12:44:41;;;;;;;3.20;0.40;;;;;;;8.68;100.00;99677.88;105272;1260;72620;-51
2023/10/16 12:47:11;;;;;;;1.20;0.30;;;;;;;8.66;100.00;99684.61;105308;1255;66802;-51
2023/10/16 12:49:54;;;;;;;4.20;0.40;;;;;;;8.62;100.00;99682.63;105867;1254;72714;-51
2023/10/16 12:52:21;;;;;;;1.70;0.50;;;;;;;8.59;100.00;99687.94;105368;1264;60581;-49
2023/10/16 12:54:52;;;;;;;1.80;0.30;;;;;;;8.58;100.00;99696.43;105364;1260;60442;-51
2023/10/16 12:57:21;;;;;;;0.80;0.30;;;;;;;8.59;100.00;99695.29;109026;1254;73869;-51
2023/10/16 12:59:49;;;;;;;1.60;0.40;;;;;;;8.60;100.00;99704.52;108052;1259;66919;-49
2023/10/16 13:02:25;;;;;;;2.30;0.40;;;;;;;8.61;100.00;99707.17;105402;1259;70871;-51
2023/10/16 13:04:53;;;;;;;1.70;0.40;;;;;;;8.59;100.00;99713.54;106885;1260;60536;-51
2023/10/16 13:07:22;;;;;;;0.70;0.30;;;;;;;8.55;100.00;99714.94;106230;1259;62428;-50
2023/10/16 13:10:20;;;;;;;0.80;0.40;;;;;;;8.48;100.00;99719.19;105320;1258;72667;-50
2023/10/16 13:12:47;;;;;;;0.90;0.40;;;;;;;8.41;100.00;99719.30;106671;1259;65981;-50
2023/10/16 13:15:16;;;;;;;2.20;0.40;;;;;;;8.34;100.00;99721.51;105903;1260;73089;-51
2023/10/16 13:17:48;;;;;;;1.80;0.30;;;;;;;8.26;100.00;99724.65;105496;1262;61446;-50
2023/10/16 13:20:19;;;;;;;0.60;0.30;;;;;;;8.18;100.00;99722.11;105387;1263;60446;-51
2023/10/16 13:22:49;;;;;;;0.30;0.30;;;;;;;8.14;100.00;99723.18;105374;1258;73935;-51
2023/10/16 13:25:17;;;;;;;0.30;0.20;;;;;;;8.13;100.00;99724.45;105250;1269;66453;-50
2023/10/16 13:27:45;;;;;;;2.70;0.40;;;;;;;8.14;100.00;99726.75;105513;1259;71461;-50
2023/10/16 13:30:12;;;;;;;0.70;0.40;;;;;;;8.15;100.00;99728.15;105993;1254;60985;-50